Time;durP1;ratioP1;P1;durP2;ratioP2;P2;SDS_P1;SDS_P2;PMS_P1;PMS_P2;Temp;Humidity;BMP_temperature;BMP_pressure;BME280_temperature;BME280_humidity;BME280_pressure;Samples;Min_cycle;Max_cycle;Signal;HPM_P1;HPM_P2
2023/01/14 07:43:02;;;;;;;681.08;385.75;;;;;;;;;;5090819;27;20432;-73
2023/01/14 07:45:28;;;;;;;442.60;253.25;;;;;;;;;;5080774;28;20028;-73
2023/01/14 07:47:54;;;;;;;163.38;114.28;;;;;;;;;;5081337;28;20020;-75
2023/01/14 07:50:19;;;;;;;209.50;138.55;;;;;;;;;;5081351;28;20409;-74
2023/01/14 07:52:50;;;;;;;141.85;100.03;;;;;;;;;;5073055;28;20406;-75
2023/01/14 07:55:16;;;;;;;123.75;99.50;;;;;;;;;;5066271;28;20050;-73
2023/01/14 07:57:41;;;;;;;97.93;70.43;;;;;;;;;;5065171;28;20453;-73
2023/01/14 08:00:07;;;;;;;85.28;65.65;;;;;;;;;;5068283;28;20016;-74
2023/01/14 08:02:34;;;;;;;253.73;162.65;;;;;;;;;;5064424;28;20086;-77
2023/01/14 08:04:59;;;;;;;116.57;86.18;;;;;;;;;;5065956;28;20043;-76
2023/01/14 08:07:24;;;;;;;64.78;54.53;;;;;;;;;;5074677;28;20025;-75
2023/01/14 08:09:50;;;;;;;104.47;73.47;;;;;;;;;;5067749;28;20024;-74
2023/01/14 08:12:17;;;;;;;63.08;50.15;;;;;;;;;;5078867;28;20029;-75
2023/01/14 08:14:42;;;;;;;91.43;58.53;;;;;;;;;;5080354;28;20407;-77
2023/01/14 08:17:07;;;;;;;53.30;42.60;;;;;;;;;;5079165;28;20107;-74
2023/01/14 08:19:33;;;;;;;61.97;50.03;;;;;;;;;;5078132;28;20039;-73
2023/01/14 08:21:58;;;;;;;321.27;203.52;;;;;;;;;;5081293;28;20028;-75
2023/01/14 08:24:24;;;;;;;88.22;66.30;;;;;;;;;;5067566;28;20509;-73
2023/01/14 08:26:49;;;;;;;63.25;50.58;;;;;;;;;;5076513;28;20059;-75
2023/01/14 08:29:17;;;;;;;61.00;50.13;;;;;;;;;;5066563;28;20443;-73
2023/01/14 08:31:43;;;;;;;43.08;37.70;;;;;;;;;;5075967;28;20028;-74
2023/01/14 08:34:08;;;;;;;39.17;34.28;;;;;;;;;;5080832;28;20047;-75
2023/01/14 08:36:34;;;;;;;67.93;49.42;;;;;;;;;;5079442;28;20040;-75
2023/01/14 08:38:59;;;;;;;31.52;27.27;;;;;;;;;;5081414;28;20198;-75
2023/01/14 08:41:24;;;;;;;34.53;29.27;;;;;;;;;;5079814;28;20122;-75
2023/01/14 08:43:50;;;;;;;158.70;111.15;;;;;;;;;;5081667;28;20435;-74
2023/01/14 08:46:15;;;;;;;58.28;47.53;;;;;;;;;;5076623;28;20410;-73
2023/01/14 08:48:40;;;;;;;42.30;37.28;;;;;;;;;;5065920;28;20032;-74
2023/01/14 08:51:07;;;;;;;50.55;43.15;;;;;;;;;;5064527;28;20027;-75
2023/01/14 08:53:34;;;;;;;44.03;37.47;;;;;;;;;;5055702;28;20024;-76
2023/01/14 08:56:00;;;;;;;49.45;41.22;;;;;;;;;;5048512;28;20028;-73
2023/01/14 08:58:25;;;;;;;46.63;40.75;;;;;;;;;;5062693;28;20032;-73
2023/01/14 09:00:56;;;;;;;48.55;43.13;;;;;;;;;;5057371;28;20449;-76
2023/01/14 09:03:22;;;;;;;53.60;46.47;;;;;;;;;;5058113;28;20436;-76
2023/01/14 09:05:47;;;;;;;53.00;44.00;;;;;;;;;;5065223;28;20082;-72
2023/01/14 09:17:04;;;;;;;55.35;49.20;;;;;;;;;;5059261;28;20185;-75
2023/01/14 09:19:14;;;;;;;86.47;66.18;;;;;;;;;;5066162;28;20071;-72
2023/01/14 09:21:39;;;;;;;64.40;52.95;;;;;;;;;;5054046;28;20107;-73
2023/01/14 09:24:05;;;;;;;41.35;35.28;;;;;;;;;;5063473;28;20373;-73
2023/01/14 09:26:30;;;;;;;54.30;45.20;;;;;;;;;;5065697;28;20052;-73
2023/01/14 09:28:55;;;;;;;70.82;59.53;;;;;;;;;;5063980;28;20040;-76
2023/01/14 09:31:21;;;;;;;75.88;62.88;;;;;;;;;;5063744;28;20093;-74
2023/01/14 09:33:46;;;;;;;93.50;79.65;;;;;;;;;;5056824;28;20651;-74
2023/01/14 09:36:11;;;;;;;170.10;144.10;;;;;;;;;;5059254;28;20020;-73
2023/01/14 09:38:36;;;;;;;132.32;111.60;;;;;;;;;;5063440;28;20439;-74
2023/01/14 09:41:02;;;;;;;101.38;86.03;;;;;;;;;;5061052;28;20056;-73
2023/01/14 09:43:29;;;;;;;99.18;83.97;;;;;;;;;;5057699;28;20029;-73
2023/01/14 09:45:56;;;;;;;116.95;96.82;;;;;;;;;;5064114;28;20021;-74
2023/01/14 09:48:22;;;;;;;116.70;101.22;;;;;;;;;;5062607;28;20031;-77
2023/01/14 09:51:20;;;;;;;104.03;90.20;;;;;;;;;;5051354;28;20020;-75
2023/01/14 09:53:48;;;;;;;108.30;94.47;;;;;;;;;;5038848;28;20234;-77
2023/01/14 09:56:19;;;;;;;105.00;89.38;;;;;;;;;;5027900;28;20522;-76
2023/01/14 09:58:49;;;;;;;108.85;93.50;;;;;;;;;;5035542;28;20029;-75
2023/01/14 10:01:23;;;;;;;140.40;108.40;;;;;;;;;;5028405;28;20037;-76
2023/01/14 10:03:51;;;;;;;169.23;133.23;;;;;;;;;;5028704;28;20037;-76
2023/01/14 10:06:17;;;;;;;162.13;129.65;;;;;;;;;;5039672;28;20028;-74
2023/01/14 10:08:47;;;;;;;113.93;101.13;;;;;;;;;;5030364;28;20028;-74
2023/01/14 10:11:12;;;;;;;;;;;;;;;;;;5040365;28;20071;-76
2023/01/14 10:13:41;;;;;;;102.95;87.25;;;;;;;;;;5038947;28;19913;-75
2023/01/14 10:16:09;;;;;;;144.30;111.93;;;;;;;;;;5043709;28;20116;-77
2023/01/14 10:18:53;;;;;;;140.77;111.28;;;;;;;;;;5039392;28;20398;-77
2023/01/14 10:21:38;;;;;;;94.07;78.38;;;;;;;;;;5042199;28;20037;-78
2023/01/14 10:24:03;;;;;;;124.68;107.93;;;;;;;;;;5029317;28;20041;-77
2023/01/14 10:26:32;;;;;;;131.68;108.55;;;;;;;;;;5040735;28;20136;-77
2023/01/14 10:29:02;;;;;;;153.13;124.63;;;;;;;;;;5047023;28;20115;-74
2023/01/14 10:31:28;;;;;;;99.50;80.40;;;;;;;;;;5064765;28;20032;-77
2023/01/14 10:33:54;;;;;;;88.57;78.85;;;;;;;;;;5063609;28;20078;-77
2023/01/14 10:36:21;;;;;;;76.10;67.80;;;;;;;;;;5063135;28;20032;-74
2023/01/14 10:38:47;;;;;;;87.82;69.43;;;;;;;;;;5064035;28;20405;-75
2023/01/14 10:41:13;;;;;;;67.15;58.72;;;;;;;;;;5063317;28;20060;-74
2023/01/14 10:43:39;;;;;;;69.40;59.63;;;;;;;;;;5056578;28;20025;-76
2023/01/14 10:46:05;;;;;;;60.65;53.67;;;;;;;;;;5046816;28;20016;-76
2023/01/14 10:48:57;;;;;;;61.00;54.45;;;;;;;;;;5048319;28;21067;-77
2023/01/14 10:51:36;;;;;;;64.05;54.55;;;;;;;;;;5047876;28;20036;-76
2023/01/14 10:54:10;;;;;;;57.95;49.80;;;;;;;;;;5050449;28;20455;-74
2023/01/14 10:56:36;;;;;;;59.38;50.13;;;;;;;;;;5063085;28;20024;-78
2023/01/14 10:59:01;;;;;;;63.10;51.60;;;;;;;;;;5061122;28;20035;-75
2023/01/14 11:01:26;;;;;;;39.72;33.85;;;;;;;;;;5048553;28;20040;-75
2023/01/14 11:03:52;;;;;;;55.65;45.05;;;;;;;;;;5050299;28;20032;-76
2023/01/14 11:06:17;;;;;;;54.78;43.53;;;;;;;;;;5050466;28;20024;-76
2023/01/14 11:08:53;;;;;;;60.28;51.67;;;;;;;;;;5060011;28;20029;-74
2023/01/14 11:11:24;;;;;;;85.10;65.75;;;;;;;;;;5064286;28;20028;-72
2023/01/14 11:13:51;;;;;;;56.92;48.40;;;;;;;;;;5048010;28;20455;-75
2023/01/14 11:16:24;;;;;;;49.90;43.22;;;;;;;;;;5047765;28;20055;-73
2023/01/14 11:18:53;;;;;;;71.68;57.63;;;;;;;;;;5048586;28;20115;-75
2023/01/14 11:21:20;;;;;;;150.27;98.15;;;;;;;;;;5049083;28;20029;-76
2023/01/14 11:23:54;;;;;;;58.75;45.25;;;;;;;;;;5047699;28;20076;-77
2023/01/14 11:26:22;;;;;;;100.75;78.20;;;;;;;;;;5056326;28;20444;-76
2023/01/14 11:28:48;;;;;;;49.33;40.38;;;;;;;;;;5059725;28;20052;-74
2023/01/14 11:31:14;;;;;;;163.73;122.20;;;;;;;;;;5050904;28;20043;-73
2023/01/14 11:33:46;;;;;;;83.38;70.07;;;;;;;;;;5052358;28;20331;-73
2023/01/14 11:36:19;;;;;;;125.35;88.70;;;;;;;;;;5062382;28;20361;-73
2023/01/14 11:38:45;;;;;;;222.50;136.13;;;;;;;;;;5063131;28;20024;-74
2023/01/14 11:41:30;;;;;;;146.15;95.68;;;;;;;;;;5062373;28;20044;-76
2023/01/14 11:44:04;;;;;;;103.47;82.25;;;;;;;;;;5061761;28;20039;-72
2023/01/14 11:46:31;;;;;;;173.13;122.40;;;;;;;;;;5047657;28;20133;-75
2023/01/14 11:48:58;;;;;;;126.47;94.32;;;;;;;;;;5047626;28;20350;-74
2023/01/14 11:51:25;;;;;;;101.78;74.07;;;;;;;;;;5047242;28;20028;-73
2023/01/14 11:53:52;;;;;;;122.20;88.65;;;;;;;;;;5061626;28;20343;-74
2023/01/14 11:56:26;;;;;;;116.35;86.32;;;;;;;;;;5061571;28;20399;-74
2023/01/14 11:58:52;;;;;;;71.47;57.75;;;;;;;;;;5060209;28;20347;-75
2023/01/14 12:01:31;;;;;;;183.93;140.20;;;;;;;;;;5063332;28;20110;-73
2023/01/14 12:04:15;;;;;;;149.57;117.85;;;;;;;;;;5064189;28;20020;-72
2023/01/14 12:06:47;;;;;;;123.20;93.55;;;;;;;;;;5052214;28;20066;-75
2023/01/14 12:09:21;;;;;;;117.55;91.75;;;;;;;;;;5049135;28;20321;-73
2023/01/14 12:11:53;;;;;;;175.27;125.25;;;;;;;;;;5050631;28;20039;-71
2023/01/14 12:17:08;;;;;;;129.43;92.90;;;;;;;;;;5063239;28;20082;-75
2023/01/14 12:19:44;;;;;;;47.53;40.50;;;;;;;;;;5047436;28;20020;-74
2023/01/14 12:22:15;;;;;;;66.82;53.20;;;;;;;;;;5036237;28;20419;-75
2023/01/14 12:25:00;;;;;;;193.38;149.93;;;;;;;;;;5046371;28;20473;-73
2023/01/14 12:27:43;;;;;;;125.13;102.15;;;;;;;;;;5048987;28;20428;-73
2023/01/14 12:30:09;;;;;;;85.35;75.97;;;;;;;;;;5051862;28;20029;-73
2023/01/14 12:32:34;;;;;;;95.75;85.45;;;;;;;;;;5050218;28;20518;-73
2023/01/14 12:35:00;;;;;;;67.85;53.00;;;;;;;;;;5052209;28;20028;-72
2023/01/14 12:37:33;;;;;;;112.00;82.18;;;;;;;;;;5052217;28;20040;-71
2023/01/14 12:45:41;;;;;;;98.20;80.55;;;;;;;;;;5065929;28;20048;-74
2023/01/14 12:48:07;;;;;;;117.35;94.63;;;;;;;;;;5051443;28;20020;-76
2023/01/14 12:50:33;;;;;;;176.52;132.27;;;;;;;;;;5050712;28;20389;-75
2023/01/14 12:52:58;;;;;;;188.45;132.75;;;;;;;;;;5049036;28;20064;-75
2023/01/14 12:55:27;;;;;;;178.93;129.13;;;;;;;;;;5059109;28;20108;-74
2023/01/14 12:57:53;;;;;;;124.90;96.68;;;;;;;;;;5050721;28;20112;-76
2023/01/14 13:00:30;;;;;;;141.55;122.38;;;;;;;;;;5047386;28;20426;-75
2023/01/14 13:02:57;;;;;;;119.97;100.50;;;;;;;;;;5052365;28;20056;-75
2023/01/14 13:05:38;;;;;;;138.90;111.75;;;;;;;;;;5048813;28;20112;-77
2023/01/14 13:08:05;;;;;;;92.68;73.03;;;;;;;;;;5050527;28;20412;-77
2023/01/14 13:10:35;;;;;;;83.47;66.30;;;;;;;;;;5050586;28;20436;-76
2023/01/14 13:13:02;;;;;;;92.18;71.95;;;;;;;;;;5050628;28;20116;-73
2023/01/14 13:15:33;;;;;;;77.50;59.13;;;;;;;;;;5050602;28;20423;-73
2023/01/14 13:18:00;;;;;;;85.55;64.97;;;;;;;;;;5049053;28;20043;-72
2023/01/14 13:20:28;;;;;;;73.72;58.42;;;;;;;;;;5057983;28;20511;-75
2023/01/14 13:22:54;;;;;;;128.88;102.28;;;;;;;;;;5061185;28;20443;-73
2023/01/14 13:25:32;;;;;;;85.05;63.15;;;;;;;;;;5056813;28;20023;-77
2023/01/14 13:27:58;;;;;;;94.15;62.47;;;;;;;;;;5050562;28;20095;-73
2023/01/14 13:30:24;;;;;;;61.05;45.17;;;;;;;;;;5061042;28;20056;-73
2023/01/14 13:32:49;;;;;;;66.95;50.00;;;;;;;;;;5064229;28;20091;-72
2023/01/14 13:35:18;;;;;;;73.55;58.75;;;;;;;;;;5063071;28;20031;-73
2023/01/14 13:37:44;;;;;;;55.25;45.72;;;;;;;;;;5062960;28;20529;-73
2023/01/14 13:40:16;;;;;;;58.75;46.65;;;;;;;;;;5063882;28;20025;-73
2023/01/14 13:42:41;;;;;;;69.32;53.08;;;;;;;;;;5062706;28;20110;-73
2023/01/14 13:45:18;;;;;;;62.38;49.25;;;;;;;;;;5064346;28;20032;-74
2023/01/14 13:47:48;;;;;;;116.65;99.22;;;;;;;;;;5058087;28;20341;-73
2023/01/14 13:50:13;;;;;;;;;;;;;;;;;;5062167;28;20025;-73
2023/01/14 13:52:47;;;;;;;79.60;66.20;;;;;;;;;;5065580;28;20231;-74
2023/01/14 13:55:19;;;;;;;81.70;63.92;;;;;;;;;;5051204;28;20032;-77
2023/01/14 13:57:49;;;;;;;63.47;48.80;;;;;;;;;;5064547;28;20028;-72
2023/01/14 14:00:17;;;;;;;80.57;61.53;;;;;;;;;;5053416;28;20017;-74
2023/01/14 14:02:43;;;;;;;48.08;39.72;;;;;;;;;;5046781;28;20032;-73
2023/01/14 14:05:14;;;;;;;37.40;33.42;;;;;;;;;;5049644;28;20047;-73
2023/01/14 14:07:39;;;;;;;45.42;37.17;;;;;;;;;;5047933;28;20025;-73
2023/01/14 14:10:07;;;;;;;36.92;32.03;;;;;;;;;;5048823;28;20281;-74
2023/01/14 14:15:24;;;;;;;66.32;53.15;;;;;;;;;;5050368;28;20086;-72
2023/01/14 14:17:57;;;;;;;58.95;44.92;;;;;;;;;;5047846;28;20469;-74
2023/01/14 14:20:24;;;;;;;90.38;80.40;;;;;;;;;;5051050;28;20428;-75
2023/01/14 14:23:00;;;;;;;42.28;37.75;;;;;;;;;;5048149;28;20098;-73
2023/01/14 14:25:35;;;;;;;67.43;58.30;;;;;;;;;;5046632;28;20032;-72
2023/01/14 14:28:00;;;;;;;71.45;57.53;;;;;;;;;;5051285;28;20028;-72
2023/01/14 14:30:31;;;;;;;74.40;60.65;;;;;;;;;;5065076;28;20355;-73
2023/01/14 14:32:56;;;;;;;75.47;67.05;;;;;;;;;;5050963;28;20107;-74
2023/01/14 14:35:22;;;;;;;97.55;83.80;;;;;;;;;;5056337;28;20122;-72
2023/01/14 14:37:49;;;;;;;75.05;65.40;;;;;;;;;;5061968;28;20047;-73
2023/01/14 14:40:29;;;;;;;68.18;59.53;;;;;;;;;;5052778;28;20036;-72
2023/01/14 14:42:55;;;;;;;99.43;85.82;;;;;;;;;;5050754;28;20387;-71
2023/01/14 14:45:27;;;;;;;94.07;83.50;;;;;;;;;;5049671;28;20459;-72
2023/01/14 14:47:53;;;;;;;137.32;94.75;;;;;;;;;;5049413;28;20021;-74
2023/01/14 14:50:28;;;;;;;180.52;112.85;;;;;;;;;;5051311;28;20040;-74
2023/01/14 14:52:53;;;;;;;86.70;73.45;;;;;;;;;;5049353;28;20032;-75
2023/01/14 14:55:19;;;;;;;76.30;64.72;;;;;;;;;;5049034;28;20031;-74
2023/01/14 14:57:44;;;;;;;79.03;63.25;;;;;;;;;;5050786;28;20024;-74
2023/01/14 15:00:23;;;;;;;66.63;53.45;;;;;;;;;;5047741;28;20033;-74
2023/01/14 15:02:50;;;;;;;70.43;53.93;;;;;;;;;;5048364;28;20036;-74
2023/01/14 15:05:21;;;;;;;108.95;92.22;;;;;;;;;;5050886;28;20268;-75
2023/01/14 15:07:47;;;;;;;114.03;88.53;;;;;;;;;;5049570;28;20020;-73
2023/01/14 15:10:16;;;;;;;100.35;84.15;;;;;;;;;;5048547;28;20024;-74
2023/01/14 15:12:41;;;;;;;109.35;93.13;;;;;;;;;;5050923;28;20028;-74
2023/01/14 15:15:23;;;;;;;130.30;113.25;;;;;;;;;;5049398;28;20043;-73
2023/01/14 15:17:49;;;;;;;146.80;127.10;;;;;;;;;;5052134;28;20024;-73
2023/01/14 15:20:16;;;;;;;169.63;127.25;;;;;;;;;;5050491;28;20031;-72
2023/01/14 15:22:42;;;;;;;179.93;113.97;;;;;;;;;;5048859;28;20039;-72
2023/01/14 15:25:11;;;;;;;178.82;128.65;;;;;;;;;;5050796;28;20351;-73
2023/01/14 15:27:36;;;;;;;140.75;104.90;;;;;;;;;;5049447;28;20089;-73
2023/01/14 15:30:34;;;;;;;103.80;82.10;;;;;;;;;;5047509;28;20452;-74
2023/01/14 15:33:00;;;;;;;89.05;69.32;;;;;;;;;;5027249;28;20048;-73
2023/01/14 15:35:25;;;;;;;95.38;77.22;;;;;;;;;;5010977;28;20083;-73
2023/01/14 15:37:52;;;;;;;131.65;103.72;;;;;;;;;;5039817;28;20819;-75
2023/01/14 15:40:23;;;;;;;113.80;89.15;;;;;;;;;;5041575;28;20028;-73
2023/01/14 15:42:48;;;;;;;112.75;88.30;;;;;;;;;;5040023;28;20045;-73
2023/01/14 15:45:21;;;;;;;84.57;68.65;;;;;;;;;;5030013;28;20359;-74
2023/01/14 15:47:46;;;;;;;142.65;122.00;;;;;;;;;;5039832;28;20021;-73
2023/01/14 15:50:19;;;;;;;134.23;112.30;;;;;;;;;;5012138;28;20385;-75
2023/01/14 15:52:46;;;;;;;154.95;113.90;;;;;;;;;;5038098;28;20033;-75
2023/01/14 15:55:23;;;;;;;156.50;104.68;;;;;;;;;;5040298;28;20048;-74
2023/01/14 15:57:50;;;;;;;289.45;169.35;;;;;;;;;;5033698;28;20535;-75
2023/01/14 16:00:20;;;;;;;283.05;153.57;;;;;;;;;;5027194;28;20056;-73
2023/01/14 16:02:45;;;;;;;308.42;152.30;;;;;;;;;;5026506;28;20045;-74
2023/01/14 16:05:23;;;;;;;188.52;116.00;;;;;;;;;;5033539;28;20047;-73
2023/01/14 16:07:49;;;;;;;190.00;157.13;;;;;;;;;;5048675;28;20416;-75
2023/01/14 16:10:14;;;;;;;156.32;129.25;;;;;;;;;;5065618;28;20032;-76
2023/01/14 16:12:40;;;;;;;193.20;117.90;;;;;;;;;;5056754;28;20024;-75
2023/01/14 16:15:16;;;;;;;172.35;99.90;;;;;;;;;;5051304;28;20153;-75
2023/01/14 16:17:42;;;;;;;138.27;120.35;;;;;;;;;;5053964;28;20028;-74
2023/01/14 16:20:12;;;;;;;181.30;161.88;;;;;;;;;;5052173;28;20082;-74
2023/01/14 16:22:37;;;;;;;;;;;;;;;;;;5051400;28;20048;-74
2023/01/14 16:25:02;;;;;;;148.05;90.95;;;;;;;;;;5049352;28;19966;-74
2023/01/14 16:27:27;;;;;;;197.93;116.07;;;;;;;;;;5048760;28;20028;-75
2023/01/14 16:29:53;;;;;;;161.20;106.13;;;;;;;;;;5051321;28;20088;-75
2023/01/14 16:32:19;;;;;;;161.20;112.65;;;;;;;;;;5061650;28;20039;-77
2023/01/14 16:34:44;;;;;;;96.90;71.15;;;;;;;;;;5063814;28;20116;-73
2023/01/14 16:37:10;;;;;;;124.15;86.10;;;;;;;;;;5064953;28;20100;-73
2023/01/14 16:39:35;;;;;;;125.95;86.72;;;;;;;;;;5065372;28;20054;-73
2023/01/14 16:42:01;;;;;;;164.23;98.88;;;;;;;;;;5066184;28;20059;-75
2023/01/14 16:44:26;;;;;;;147.90;88.95;;;;;;;;;;5066543;28;20341;-73
2023/01/14 16:46:51;;;;;;;246.60;133.63;;;;;;;;;;5066438;28;20025;-74
2023/01/14 16:49:17;;;;;;;171.23;103.85;;;;;;;;;;5066459;28;21386;-76
2023/01/14 16:51:42;;;;;;;126.88;83.75;;;;;;;;;;5059713;28;20028;-77
2023/01/14 16:54:15;;;;;;;138.68;92.95;;;;;;;;;;5057586;28;20074;-77
2023/01/14 16:56:40;;;;;;;107.90;85.93;;;;;;;;;;5059051;28;20043;-76
2023/01/14 16:59:05;;;;;;;91.28;76.10;;;;;;;;;;5059237;28;21300;-77
2023/01/14 17:01:30;;;;;;;144.13;102.82;;;;;;;;;;5063938;28;20029;-77
2023/01/14 17:03:56;;;;;;;223.20;159.25;;;;;;;;;;5063259;28;20064;-76
2023/01/14 17:06:21;;;;;;;170.77;126.28;;;;;;;;;;5064176;28;20024;-75
2023/01/14 17:08:47;;;;;;;134.70;106.43;;;;;;;;;;5055694;28;20020;-76
2023/01/14 17:13:56;;;;;;;141.20;115.65;;;;;;;;;;5065219;28;20115;-74
2023/01/14 17:16:22;;;;;;;111.07;83.93;;;;;;;;;;5064140;28;20115;-75
2023/01/14 17:18:47;;;;;;;116.80;86.70;;;;;;;;;;5064374;28;20029;-77
2023/01/14 17:21:12;;;;;;;245.90;148.27;;;;;;;;;;5051314;28;20982;-79
2023/01/14 17:23:38;;;;;;;240.98;159.48;;;;;;;;;;5052146;28;20029;-77
2023/01/14 17:26:07;;;;;;;196.05;125.53;;;;;;;;;;5050520;28;20444;-77
2023/01/14 17:28:32;;;;;;;155.73;111.10;;;;;;;;;;5050294;28;20051;-76
2023/01/14 17:30:57;;;;;;;145.18;97.35;;;;;;;;;;5051069;28;20025;-74
2023/01/14 17:33:23;;;;;;;145.32;114.45;;;;;;;;;;5051534;28;20027;-76
2023/01/14 17:35:48;;;;;;;95.70;76.18;;;;;;;;;;5049917;28;20035;-76
2023/01/14 17:38:13;;;;;;;95.10;82.93;;;;;;;;;;5049388;28;20089;-77
2023/01/14 17:40:39;;;;;;;81.65;66.43;;;;;;;;;;5049669;28;20115;-76
2023/01/14 17:43:04;;;;;;;75.13;62.35;;;;;;;;;;5049060;28;20048;-77
2023/01/14 17:45:29;;;;;;;80.28;66.65;;;;;;;;;;5051292;28;20025;-77
2023/01/14 17:47:55;;;;;;;95.47;74.70;;;;;;;;;;5051841;28;20037;-77
2023/01/14 17:50:20;;;;;;;97.90;77.82;;;;;;;;;;5052563;28;20046;-77
2023/01/14 17:52:49;;;;;;;94.75;76.13;;;;;;;;;;5050791;28;20047;-77
2023/01/14 17:55:15;;;;;;;106.85;85.30;;;;;;;;;;5052251;28;20063;-76
2023/01/14 17:57:40;;;;;;;96.45;78.93;;;;;;;;;;5052409;28;20032;-75
2023/01/14 18:00:06;;;;;;;107.10;83.35;;;;;;;;;;5057074;28;20385;-76
2023/01/14 18:02:31;;;;;;;93.13;72.22;;;;;;;;;;5056449;28;20431;-74
2023/01/14 18:04:57;;;;;;;92.30;69.53;;;;;;;;;;5057738;28;20037;-76
2023/01/14 18:07:23;;;;;;;117.50;82.05;;;;;;;;;;5052103;28;20447;-76
2023/01/14 18:09:49;;;;;;;62.22;50.65;;;;;;;;;;5050904;28;20031;-76
2023/01/14 18:12:14;;;;;;;62.25;51.40;;;;;;;;;;5048898;28;20052;-75
2023/01/14 18:14:39;;;;;;;51.95;42.50;;;;;;;;;;5052240;28;20631;-74
2023/01/14 18:17:05;;;;;;;123.63;100.07;;;;;;;;;;5058591;28;20081;-75
2023/01/14 18:19:30;;;;;;;97.32;83.88;;;;;;;;;;5063462;28;20115;-74
2023/01/14 18:21:56;;;;;;;89.97;76.38;;;;;;;;;;5052522;28;20028;-75
2023/01/14 18:24:21;;;;;;;109.15;94.43;;;;;;;;;;5048401;28;20067;-75
2023/01/14 18:26:46;;;;;;;81.53;68.72;;;;;;;;;;5056954;28;20455;-75
2023/01/14 18:29:12;;;;;;;115.95;97.18;;;;;;;;;;5055334;28;20115;-76
2023/01/14 18:31:37;;;;;;;123.95;105.57;;;;;;;;;;5048763;28;20884;-77
2023/01/14 18:34:04;;;;;;;121.18;107.40;;;;;;;;;;5047932;28;20032;-74
2023/01/14 18:36:30;;;;;;;107.38;87.90;;;;;;;;;;5056613;28;20029;-74
2023/01/14 18:38:55;;;;;;;132.05;108.28;;;;;;;;;;5057824;28;20020;-74
2023/01/14 18:41:21;;;;;;;189.20;148.82;;;;;;;;;;5047546;28;20052;-72
2023/01/14 18:43:47;;;;;;;235.10;177.07;;;;;;;;;;5048108;28;20028;-75
2023/01/14 18:46:14;;;;;;;208.27;163.27;;;;;;;;;;5049212;28;20029;-72
2023/01/14 18:48:42;;;;;;;168.73;130.55;;;;;;;;;;5049394;28;20032;-74
2023/01/14 18:51:08;;;;;;;91.25;75.68;;;;;;;;;;5046972;28;20052;-75
2023/01/14 18:53:33;;;;;;;103.03;83.65;;;;;;;;;;5048356;28;20147;-74
2023/01/14 18:56:02;;;;;;;140.07;104.38;;;;;;;;;;5045768;28;20066;-72
2023/01/14 18:58:29;;;;;;;174.80;138.90;;;;;;;;;;5047018;28;20454;-71
2023/01/14 19:00:54;;;;;;;130.60;105.10;;;;;;;;;;5046816;28;20085;-71
2023/01/14 19:03:20;;;;;;;154.43;121.85;;;;;;;;;;5048308;28;20037;-71
2023/01/14 19:05:45;;;;;;;107.70;87.32;;;;;;;;;;5050038;28;20425;-71
2023/01/14 19:08:10;;;;;;;107.00;88.65;;;;;;;;;;5048578;28;20016;-75
2023/01/14 19:10:36;;;;;;;146.27;113.03;;;;;;;;;;5044273;28;20032;-75
2023/01/14 19:13:01;;;;;;;155.68;122.53;;;;;;;;;;5049206;28;20406;-72
2023/01/14 19:15:26;;;;;;;122.57;91.57;;;;;;;;;;5062517;28;20428;-73
2023/01/14 19:17:52;;;;;;;105.05;86.20;;;;;;;;;;5048439;28;21128;-74
2023/01/14 19:20:17;;;;;;;114.03;87.60;;;;;;;;;;5054752;28;20024;-73
2023/01/14 19:22:43;;;;;;;168.35;125.63;;;;;;;;;;5046790;28;20422;-72
2023/01/14 19:25:09;;;;;;;122.80;97.18;;;;;;;;;;5050834;28;20021;-72
2023/01/14 19:27:34;;;;;;;109.45;88.80;;;;;;;;;;5055458;28;20447;-73
2023/01/14 19:30:00;;;;;;;94.72;75.05;;;;;;;;;;5054972;28;20027;-72
2023/01/14 19:32:25;;;;;;;153.73;120.68;;;;;;;;;;5047246;28;20039;-72
2023/01/14 19:34:50;;;;;;;129.15;103.32;;;;;;;;;;5048584;28;20033;-71
2023/01/14 19:37:16;;;;;;;98.07;78.93;;;;;;;;;;5048507;28;20036;-72
2023/01/14 19:39:41;;;;;;;90.15;75.13;;;;;;;;;;5057060;28;20524;-72
2023/01/14 19:42:06;;;;;;;96.15;75.72;;;;;;;;;;5061367;28;20127;-71
2023/01/14 19:44:32;;;;;;;115.07;91.43;;;;;;;;;;5061870;28;20020;-72
2023/01/14 19:46:57;;;;;;;110.70;84.78;;;;;;;;;;5062851;28;20347;-71
2023/01/14 19:49:22;;;;;;;114.40;88.97;;;;;;;;;;5060597;28;20742;-73
2023/01/14 19:51:47;;;;;;;128.88;99.28;;;;;;;;;;5063778;28;20033;-71
2023/01/14 19:54:13;;;;;;;191.07;141.45;;;;;;;;;;5062536;28;20333;-72
2023/01/14 19:56:38;;;;;;;144.40;109.85;;;;;;;;;;5049515;28;20056;-74
2023/01/14 19:59:04;;;;;;;145.82;114.18;;;;;;;;;;5047551;28;20106;-73
2023/01/14 20:01:31;;;;;;;152.32;117.25;;;;;;;;;;5056623;28;20032;-75
2023/01/14 20:03:57;;;;;;;164.07;131.85;;;;;;;;;;5061201;28;20793;-73
2023/01/14 20:06:23;;;;;;;147.70;114.53;;;;;;;;;;5049630;28;20020;-72
2023/01/14 20:08:49;;;;;;;191.73;143.50;;;;;;;;;;5047637;28;20557;-73
2023/01/14 20:11:15;;;;;;;193.40;163.15;;;;;;;;;;5049596;28;20033;-72
2023/01/14 20:13:41;;;;;;;140.85;114.45;;;;;;;;;;5049623;28;20037;-73
2023/01/14 20:16:07;;;;;;;135.02;114.03;;;;;;;;;;5050572;28;20071;-73
2023/01/14 20:18:36;;;;;;;110.18;89.10;;;;;;;;;;5049274;28;20060;-72
2023/01/14 20:21:03;;;;;;;103.20;81.10;;;;;;;;;;5058805;28;20028;-72
2023/01/14 20:23:29;;;;;;;93.10;73.50;;;;;;;;;;5061966;28;20040;-74
2023/01/14 20:25:54;;;;;;;154.20;126.57;;;;;;;;;;5048073;28;20032;-72
2023/01/14 20:28:20;;;;;;;124.43;97.70;;;;;;;;;;5049996;28;20025;-74
2023/01/14 20:30:49;;;;;;;115.18;92.35;;;;;;;;;;5043165;28;20420;-74
2023/01/14 20:33:16;;;;;;;108.87;83.37;;;;;;;;;;5048224;28;20039;-72
2023/01/14 20:35:41;;;;;;;111.22;90.43;;;;;;;;;;5050455;28;20029;-74
2023/01/14 20:38:07;;;;;;;128.32;101.38;;;;;;;;;;5047891;28;20028;-73
2023/01/14 20:40:32;;;;;;;81.82;66.82;;;;;;;;;;5048630;28;21583;-75
2023/01/14 20:42:57;;;;;;;114.65;86.57;;;;;;;;;;5048617;28;20050;-73
2023/01/14 20:45:23;;;;;;;188.32;135.90;;;;;;;;;;5046655;28;20038;-74
2023/01/14 20:50:32;;;;;;;115.25;90.65;;;;;;;;;;5049331;28;20115;-71
2023/01/14 20:52:57;;;;;;;99.57;81.03;;;;;;;;;;5054383;28;20112;-74
2023/01/14 20:55:23;;;;;;;189.88;137.57;;;;;;;;;;5048312;28;20020;-74
2023/01/14 20:57:48;;;;;;;147.93;117.32;;;;;;;;;;5050836;28;20032;-73
2023/01/14 21:00:14;;;;;;;103.18;80.00;;;;;;;;;;5050489;28;20085;-72
2023/01/14 21:02:39;;;;;;;175.60;136.05;;;;;;;;;;5050572;28;20040;-74
2023/01/14 21:05:05;;;;;;;324.27;190.77;;;;;;;;;;5053612;28;20032;-72
2023/01/14 21:07:30;;;;;;;145.60;107.60;;;;;;;;;;5059521;28;20032;-73
2023/01/14 21:09:56;;;;;;;125.65;98.30;;;;;;;;;;5060879;28;20107;-72
2023/01/14 21:12:21;;;;;;;135.80;105.68;;;;;;;;;;5057275;28;20028;-72
2023/01/14 21:23:03;;;;;;;307.42;229.15;;;;;;;;;;5050957;28;20109;-73
2023/01/14 21:25:31;;;;;;;188.68;134.27;;;;;;;;;;5048077;28;20025;-73
2023/01/14 21:27:56;;;;;;;125.30;93.20;;;;;;;;;;5051091;28;20032;-72
2023/01/14 21:30:23;;;;;;;271.25;205.50;;;;;;;;;;5049788;28;20616;-72
2023/01/14 21:32:49;;;;;;;223.18;168.32;;;;;;;;;;5051939;28;20024;-75
2023/01/14 21:35:18;;;;;;;106.50;82.45;;;;;;;;;;5063355;28;20048;-73
2023/01/14 21:37:44;;;;;;;137.18;108.20;;;;;;;;;;5062936;28;20332;-72
2023/01/14 21:40:10;;;;;;;134.98;112.95;;;;;;;;;;5061267;28;20047;-74
2023/01/14 21:45:20;;;;;;;165.18;117.00;;;;;;;;;;5059608;28;20094;-72
2023/01/14 21:47:45;;;;;;;250.77;181.60;;;;;;;;;;5048966;28;20032;-72
2023/01/14 21:50:11;;;;;;;163.70;125.82;;;;;;;;;;5057040;28;20129;-74
2023/01/14 21:52:37;;;;;;;90.43;71.97;;;;;;;;;;5065495;28;20068;-74
2023/01/14 21:55:02;;;;;;;70.30;59.70;;;;;;;;;;5064370;28;20506;-72
2023/01/14 21:57:27;;;;;;;62.92;51.53;;;;;;;;;;5053890;28;20036;-71
2023/01/14 21:59:53;;;;;;;68.75;56.60;;;;;;;;;;5061546;28;21549;-73
2023/01/14 22:02:22;;;;;;;101.97;72.63;;;;;;;;;;5064371;28;20029;-72
2023/01/14 22:04:47;;;;;;;131.88;90.53;;;;;;;;;;5063928;28;20028;-75
2023/01/14 22:07:14;;;;;;;88.43;72.15;;;;;;;;;;5062404;28;20036;-72
2023/01/14 22:09:39;;;;;;;497.48;256.55;;;;;;;;;;5051578;28;20028;-72
2023/01/14 22:12:05;;;;;;;184.48;100.18;;;;;;;;;;5060841;28;20040;-72
2023/01/14 22:14:30;;;;;;;1139.90;590.45;;;;;;;;;;5058215;28;20029;-71
2023/01/14 22:16:55;;;;;;;382.88;201.18;;;;;;;;;;5057350;28;20039;-71
2023/01/14 22:19:21;;;;;;;319.70;166.25;;;;;;;;;;5061352;28;20727;-73
2023/01/14 22:21:46;;;;;;;227.35;130.93;;;;;;;;;;5062348;28;20087;-73
2023/01/14 22:24:11;;;;;;;175.57;107.50;;;;;;;;;;5063184;28;20039;-72
2023/01/14 22:26:37;;;;;;;184.10;103.32;;;;;;;;;;5064037;28;20527;-74